Time;durP1;ratioP1;P1;durP2;ratioP2;P2;SDS_P1;SDS_P2;PMS_P1;PMS_P2;Temp;Humidity;BMP_temperature;BMP_pressure;BME280_temperature;BME280_humidity;BME280_pressure;Samples;Min_cycle;Max_cycle;Signal;HPM_P1;HPM_P2
2023/09/07 00:01:52;;;;;;;10.23;9.33;;;14.80;99.90;;;;;;4995054;28;20211;-78
2023/09/07 00:04:19;;;;;;;11.00;10.10;;;14.80;99.90;;;;;;4988052;28;20272;-78
2023/09/07 00:06:46;;;;;;;11.10;10.13;;;14.70;99.90;;;;;;4991003;28;20200;-78
2023/09/07 00:09:13;;;;;;;10.70;9.80;;;14.70;99.90;;;;;;4995308;28;20200;-78
2023/09/07 00:11:40;;;;;;;10.70;9.80;;;14.70;99.90;;;;;;4987761;28;20213;-78
2023/09/07 00:14:07;;;;;;;10.70;9.80;;;14.70;99.90;;;;;;4992309;28;20256;-78
2023/09/07 00:16:37;;;;;;;11.43;10.33;;;14.70;99.90;;;;;;4983336;28;20206;-78
2023/09/07 00:19:04;;;;;;;11.17;10.17;;;14.70;99.90;;;;;;4986957;28;20259;-78
2023/09/07 00:21:31;;;;;;;11.07;10.17;;;14.60;99.90;;;;;;4989268;28;20674;-78
2023/09/07 00:23:58;;;;;;;11.73;10.53;;;14.60;99.90;;;;;;4987346;28;20216;-78
2023/09/07 00:26:25;;;;;;;11.17;10.27;;;14.60;99.90;;;;;;4990720;28;20194;-78
2023/09/07 00:28:52;;;;;;;11.20;10.17;;;14.60;99.90;;;;;;4991958;28;20243;-78
2023/09/07 00:31:18;;;;;;;11.30;10.30;;;14.50;99.90;;;;;;4987450;28;20655;-77
2023/09/07 00:33:47;;;;;;;11.30;10.20;;;14.40;99.90;;;;;;4989451;28;20241;-78
2023/09/07 00:36:13;;;;;;;11.43;10.50;;;14.40;99.90;;;;;;4990257;28;20218;-77
2023/09/07 00:38:41;;;;;;;11.40;10.50;;;14.40;99.90;;;;;;4985961;28;20727;-78
2023/09/07 00:41:08;;;;;;;12.17;11.00;;;14.40;99.90;;;;;;4986114;28;20568;-78
2023/09/07 00:43:35;;;;;;;11.70;10.63;;;14.40;99.90;;;;;;4993906;28;20717;-78
2023/09/07 00:46:02;;;;;;;11.97;10.97;;;14.40;99.90;;;;;;4984309;28;20288;-78
2023/09/07 00:48:29;;;;;;;10.80;9.90;;;14.30;99.90;;;;;;4993893;28;20223;-78
2023/09/07 00:50:57;;;;;;;11.70;10.40;;;14.30;99.90;;;;;;4990219;28;20206;-78
2023/09/07 00:53:24;;;;;;;11.50;10.40;;;14.30;99.90;;;;;;4990190;28;20217;-77
2023/09/07 00:55:51;;;;;;;11.77;10.77;;;14.30;99.90;;;;;;4985595;28;20237;-78
2023/09/07 00:58:18;;;;;;;11.50;10.60;;;14.40;99.90;;;;;;4986101;28;20221;-78
2023/09/07 01:00:45;;;;;;;12.30;11.30;;;14.40;99.90;;;;;;4987193;28;20225;-78
2023/09/07 01:03:12;;;;;;;12.37;10.90;;;14.30;99.90;;;;;;4989979;28;20675;-78
2023/09/07 01:05:47;;;;;;;11.30;10.40;;;14.30;99.90;;;;;;4986075;28;20678;-78
2023/09/07 01:08:25;;;;;;;11.70;10.80;;;14.30;99.90;;;;;;4990776;28;20200;-78
2023/09/07 01:10:52;;;;;;;11.53;10.50;;;14.20;99.90;;;;;;4989798;28;20529;-78
2023/09/07 01:13:19;;;;;;;11.83;10.83;;;14.20;99.90;;;;;;4985642;28;20249;-78
2023/09/07 01:15:47;;;;;;;10.93;10.03;;;14.30;99.90;;;;;;4984979;28;20230;-78
2023/09/07 01:18:14;;;;;;;11.73;10.83;;;14.30;99.90;;;;;;4985525;28;20211;-78
2023/09/07 01:20:43;;;;;;;11.27;10.27;;;14.20;99.90;;;;;;4986885;28;20202;-78
2023/09/07 01:23:12;;;;;;;11.10;10.20;;;14.20;99.90;;;;;;4984708;28;20284;-78
2023/09/07 01:25:41;;;;;;;11.37;10.47;;;14.20;99.90;;;;;;4986914;28;20241;-78
2023/09/07 01:28:08;;;;;;;12.30;11.30;;;14.20;99.90;;;;;;4989918;28;20233;-78
2023/09/07 01:30:36;;;;;;;11.20;10.37;;;14.10;99.90;;;;;;4981913;28;20286;-78
2023/09/07 01:33:03;;;;;;;11.90;10.90;;;14.10;99.90;;;;;;4987189;28;20226;-78
2023/09/07 01:35:32;;;;;;;11.97;10.97;;;14.10;99.90;;;;;;4981327;28;20228;-78
2023/09/07 01:37:59;;;;;;;11.87;10.97;;;14.10;99.90;;;;;;4977144;28;20214;-78
2023/09/07 01:40:27;;;;;;;11.47;10.60;;;14.00;99.90;;;;;;4981343;28;20257;-79
2023/09/07 01:42:54;;;;;;;12.77;11.57;;;14.00;99.90;;;;;;4988277;28;20205;-78
2023/09/07 01:45:22;;;;;;;12.07;11.07;;;14.00;99.90;;;;;;4985771;28;20196;-78
2023/09/07 01:47:48;;;;;;;11.67;10.77;;;14.00;99.90;;;;;;4991553;28;20212;-79
2023/09/07 01:50:15;;;;;;;11.67;10.67;;;13.90;99.90;;;;;;4985043;28;20205;-78
2023/09/07 01:52:43;;;;;;;11.20;10.30;;;13.90;99.90;;;;;;4988678;28;20832;-78
2023/09/07 01:55:09;;;;;;;11.33;10.37;;;13.90;99.90;;;;;;4990241;28;20336;-79
2023/09/07 01:57:38;;;;;;;12.37;11.27;;;13.90;99.90;;;;;;4984889;28;20208;-78
2023/09/07 02:00:06;;;;;;;12.20;11.20;;;13.80;99.90;;;;;;4984116;28;20260;-79
2023/09/07 02:02:40;;;;;;;11.37;10.37;;;13.70;99.90;;;;;;4989388;28;20693;-78
2023/09/07 02:05:07;;;;;;;12.07;11.07;;;13.70;99.90;;;;;;4984357;28;20222;-78
2023/09/07 02:07:34;;;;;;;11.63;10.70;;;13.70;99.90;;;;;;4988789;28;20203;-78
2023/09/07 02:10:03;;;;;;;11.60;10.60;;;13.70;99.90;;;;;;4988914;28;20202;-78
2023/09/07 02:12:29;;;;;;;12.33;11.23;;;13.70;99.90;;;;;;4987364;28;20286;-78
2023/09/07 02:14:59;;;;;;;12.40;11.40;;;13.70;99.90;;;;;;4983878;28;20232;-78
2023/09/07 02:17:26;;;;;;;12.33;11.30;;;13.60;99.90;;;;;;4987762;28;20201;-78
2023/09/07 02:19:53;;;;;;;12.07;11.07;;;13.60;99.90;;;;;;4984331;28;20229;-78
2023/09/07 02:22:20;;;;;;;12.73;11.63;;;13.50;99.90;;;;;;4989454;28;20662;-78
2023/09/07 02:24:47;;;;;;;13.30;12.20;;;13.50;99.90;;;;;;4984501;28;20223;-78
2023/09/07 02:27:14;;;;;;;12.63;11.63;;;13.50;99.90;;;;;;4989097;28;20213;-78
2023/09/07 02:29:41;;;;;;;12.30;11.30;;;13.50;99.90;;;;;;4988485;28;20201;-78
2023/09/07 02:32:09;;;;;;;13.07;11.93;;;13.50;99.90;;;;;;4991172;28;20202;-78
2023/09/07 02:34:37;;;;;;;12.47;11.40;;;13.50;99.90;;;;;;4983588;28;20250;-78
2023/09/07 02:37:04;;;;;;;12.37;11.37;;;13.50;99.90;;;;;;4984402;28;20211;-78
2023/09/07 02:39:31;;;;;;;12.97;11.90;;;13.50;99.90;;;;;;4984545;28;20206;-78
2023/09/07 02:41:58;;;;;;;13.13;12.13;;;13.50;99.90;;;;;;4984378;28;20198;-78
2023/09/07 02:44:25;;;;;;;12.83;11.63;;;13.50;99.90;;;;;;4985986;28;20243;-78
2023/09/07 02:46:52;;;;;;;12.80;11.80;;;13.40;99.90;;;;;;4982236;28;20571;-77
2023/09/07 02:49:20;;;;;;;12.20;11.30;;;13.40;99.90;;;;;;4984770;28;20205;-78
2023/09/07 02:51:49;;;;;;;12.20;11.27;;;13.40;99.90;;;;;;4990682;28;20202;-80
2023/09/07 02:54:15;;;;;;;12.70;11.63;;;13.40;99.90;;;;;;4984236;28;20222;-78
2023/09/07 02:56:43;;;;;;;11.77;10.57;;;13.30;99.90;;;;;;4991664;28;20316;-83
2023/09/07 02:59:10;;;;;;;11.70;10.80;;;13.20;99.90;;;;;;4990616;28;20201;-80
2023/09/07 03:01:39;;;;;;;11.80;10.80;;;13.20;99.90;;;;;;4997716;28;20210;-79
2023/09/07 03:04:07;;;;;;;11.83;10.83;;;13.10;99.90;;;;;;4996617;28;20229;-79
2023/09/07 03:06:36;;;;;;;12.53;11.57;;;13.10;99.90;;;;;;4997415;28;20224;-80
2023/09/07 03:09:06;;;;;;;11.10;10.20;;;13.10;99.90;;;;;;4996863;28;20206;-79
2023/09/07 03:11:34;;;;;;;10.90;10.10;;;13.10;99.90;;;;;;4996379;28;20292;-80
2023/09/07 03:14:02;;;;;;;11.90;11.00;;;13.00;99.90;;;;;;4997423;28;20228;-79
2023/09/07 03:16:31;;;;;;;11.50;10.50;;;13.00;99.90;;;;;;4996524;28;20217;-80
2023/09/07 03:18:58;;;;;;;11.67;10.87;;;13.00;99.90;;;;;;4984197;28;20205;-80
2023/09/07 03:21:29;;;;;;;11.30;10.40;;;12.90;99.90;;;;;;4991764;28;20193;-79
2023/09/07 03:23:58;;;;;;;10.60;9.80;;;12.90;99.90;;;;;;4985068;28;20209;-80
2023/09/07 03:26:25;;;;;;;10.77;9.97;;;12.90;99.90;;;;;;4988075;28;20202;-79
2023/09/07 03:28:52;;;;;;;11.33;10.33;;;12.80;99.90;;;;;;4997460;28;20730;-80
2023/09/07 03:31:19;;;;;;;11.43;10.53;;;12.80;99.90;;;;;;4983051;28;20209;-77
2023/09/07 03:33:48;;;;;;;12.07;11.07;;;12.80;99.90;;;;;;4979871;28;20217;-82
2023/09/07 03:36:15;;;;;;;11.57;10.67;;;12.80;99.90;;;;;;4985061;28;20222;-76
2023/09/07 03:38:43;;;;;;;11.00;10.20;;;12.80;99.90;;;;;;4986550;28;20647;-76
2023/09/07 03:41:11;;;;;;;11.23;10.33;;;12.80;99.90;;;;;;4990924;28;20208;-75
2023/09/07 03:43:38;;;;;;;11.07;10.27;;;12.70;99.90;;;;;;4985739;28;20220;-75
2023/09/07 03:46:05;;;;;;;10.90;10.10;;;12.70;99.90;;;;;;4995635;28;20202;-75
2023/09/07 03:48:32;;;;;;;11.57;10.77;;;12.70;99.90;;;;;;4982771;28;20212;-75
2023/09/07 03:50:59;;;;;;;11.93;11.03;;;12.70;99.90;;;;;;4991179;28;20209;-76
2023/09/07 03:53:26;;;;;;;12.20;11.30;;;12.60;99.90;;;;;;4976405;28;20229;-76
2023/09/07 03:55:52;;;;;;;12.17;11.27;;;12.60;99.90;;;;;;4986121;28;20222;-76
2023/09/07 03:58:22;;;;;;;11.63;10.73;;;12.60;99.90;;;;;;4989443;28;20201;-75
2023/09/07 04:00:50;;;;;;;12.53;11.53;;;12.60;99.90;;;;;;4987568;28;20224;-75
2023/09/07 04:03:17;;;;;;;11.87;10.97;;;12.60;99.90;;;;;;4989780;28;20250;-75
2023/09/07 04:05:44;;;;;;;11.20;10.40;;;12.60;99.90;;;;;;5008320;28;20189;-76
2023/09/07 04:08:12;;;;;;;11.67;10.70;;;12.60;99.90;;;;;;4987951;28;20577;-75
2023/09/07 04:10:39;;;;;;;11.43;10.53;;;12.50;99.90;;;;;;4991168;28;21111;-76
2023/09/07 04:13:06;;;;;;;12.47;11.53;;;12.50;99.90;;;;;;4989669;28;20261;-75
2023/09/07 04:15:34;;;;;;;12.73;11.83;;;12.50;99.90;;;;;;4987570;28;20230;-75
2023/09/07 04:18:01;;;;;;;12.43;11.53;;;12.40;99.90;;;;;;4991761;28;20190;-75
2023/09/07 04:20:29;;;;;;;12.50;11.60;;;12.40;99.90;;;;;;4989529;28;20608;-75
2023/09/07 04:22:57;;;;;;;12.53;11.53;;;12.40;99.90;;;;;;4991389;28;20202;-76
2023/09/07 04:25:23;;;;;;;12.47;11.53;;;12.40;99.90;;;;;;4991814;28;20216;-75
2023/09/07 04:27:50;;;;;;;12.50;11.60;;;12.40;99.90;;;;;;4991712;28;20197;-75
2023/09/07 04:30:17;;;;;;;12.77;11.87;;;12.30;99.90;;;;;;4991487;28;20204;-76
2023/09/07 04:32:45;;;;;;;13.83;12.80;;;12.30;99.90;;;;;;4989780;28;20225;-76
2023/09/07 04:35:13;;;;;;;12.97;12.00;;;12.20;99.90;;;;;;4990472;28;20252;-75
2023/09/07 04:37:42;;;;;;;12.47;11.57;;;12.20;99.90;;;;;;4990246;28;20250;-75
2023/09/07 04:40:10;;;;;;;12.33;11.43;;;12.20;99.90;;;;;;4989968;28;20201;-76
2023/09/07 04:42:38;;;;;;;12.23;11.33;;;12.20;99.90;;;;;;4992069;28;20244;-77
2023/09/07 04:45:06;;;;;;;13.00;12.00;;;12.20;99.90;;;;;;4991013;28;20769;-76
2023/09/07 04:47:33;;;;;;;12.17;11.27;;;12.20;99.90;;;;;;4989322;28;20200;-75
2023/09/07 04:50:01;;;;;;;12.57;11.67;;;12.20;99.90;;;;;;4984852;28;20197;-76
2023/09/07 04:52:28;;;;;;;13.30;12.23;;;12.20;99.90;;;;;;4988961;28;20217;-76
2023/09/07 04:54:54;;;;;;;12.93;11.83;;;12.10;99.90;;;;;;4990854;28;20369;-76
2023/09/07 04:57:21;;;;;;;12.60;11.70;;;12.10;99.90;;;;;;4990558;28;20190;-76
2023/09/07 04:59:49;;;;;;;12.53;11.63;;;12.10;99.90;;;;;;4990827;28;20205;-76
2023/09/07 05:02:17;;;;;;;12.43;11.43;;;12.10;99.90;;;;;;4989788;28;20671;-76
2023/09/07 05:04:43;;;;;;;13.80;12.50;;;12.10;99.90;;;;;;4991394;28;20221;-75
2023/09/07 05:07:12;;;;;;;13.67;12.57;;;12.20;99.90;;;;;;4989870;28;20197;-75
2023/09/07 05:09:39;;;;;;;13.23;12.13;;;12.20;99.90;;;;;;4991711;28;20197;-75
2023/09/07 05:12:07;;;;;;;12.73;11.73;;;12.20;99.90;;;;;;4990959;28;20585;-75
2023/09/07 05:14:34;;;;;;;11.77;10.87;;;12.20;99.90;;;;;;4990237;28;20312;-75
2023/09/07 05:17:00;;;;;;;12.73;11.73;;;12.30;99.90;;;;;;4990546;28;20244;-75
2023/09/07 05:19:28;;;;;;;11.70;10.83;;;12.30;99.90;;;;;;4989827;28;20209;-76
2023/09/07 05:21:55;;;;;;;13.03;12.13;;;12.30;99.90;;;;;;4990358;28;20201;-76
2023/09/07 05:24:23;;;;;;;12.67;11.77;;;12.40;99.90;;;;;;4990878;28;20213;-76
2023/09/07 05:26:50;;;;;;;12.97;12.00;;;12.40;99.90;;;;;;4989432;28;20198;-76
2023/09/07 05:29:20;;;;;;;13.00;12.00;;;12.50;99.90;;;;;;4990167;28;20192;-76
2023/09/07 05:31:47;;;;;;;13.13;12.13;;;12.50;99.90;;;;;;4983685;28;20201;-76
2023/09/07 05:34:14;;;;;;;13.70;12.70;;;12.60;99.90;;;;;;4988799;28;20224;-76
2023/09/07 05:36:40;;;;;;;13.80;12.70;;;12.70;99.90;;;;;;4987656;28;20242;-76
2023/09/07 05:39:07;;;;;;;13.53;12.63;;;12.80;99.90;;;;;;4988834;28;20267;-76
2023/09/07 05:41:35;;;;;;;13.80;12.80;;;12.90;99.90;;;;;;4987869;28;20212;-76
2023/09/07 05:44:02;;;;;;;14.17;13.17;;;13.00;99.90;;;;;;4988509;28;20691;-76
2023/09/07 05:46:29;;;;;;;14.47;13.47;;;13.10;99.90;;;;;;4990037;28;20193;-76
2023/09/07 05:48:56;;;;;;;13.40;12.40;;;13.30;99.90;;;;;;4990127;28;20297;-79
2023/09/07 05:51:23;;;;;;;13.33;12.33;;;13.50;99.90;;;;;;4988609;28;20193;-76
2023/09/07 05:53:50;;;;;;;13.50;12.60;;;13.60;99.90;;;;;;4989784;28;20213;-76
2023/09/07 05:56:17;;;;;;;12.90;12.00;;;13.70;99.90;;;;;;4990373;28;20219;-81
2023/09/07 05:58:45;;;;;;;12.87;11.97;;;13.80;99.90;;;;;;4991174;28;20281;-80
2023/09/07 06:01:12;;;;;;;13.60;12.60;;;13.90;99.90;;;;;;4992216;28;20432;-80
2023/09/07 06:03:41;;;;;;;13.52;12.63;;;14.00;99.90;;;;;;4990286;28;20444;-81
2023/09/07 06:06:17;;;;;;;13.88;12.88;;;14.10;99.90;;;;;;4991242;28;20793;-82
2023/09/07 06:08:44;;;;;;;13.10;12.13;;;14.30;99.90;;;;;;4991837;28;20686;-80
2023/09/07 06:11:11;;;;;;;12.87;11.97;;;14.40;99.90;;;;;;4992754;28;20200;-81
2023/09/07 06:13:38;;;;;;;13.20;12.30;;;14.50;99.90;;;;;;4990793;28;20298;-81
2023/09/07 06:16:06;;;;;;;11.77;10.97;;;14.60;99.90;;;;;;4991730;28;20231;-81
2023/09/07 06:18:33;;;;;;;12.80;11.90;;;14.70;99.90;;;;;;4991011;28;20448;-80
2023/09/07 06:21:00;;;;;;;11.93;11.13;;;14.80;99.90;;;;;;4998913;28;20207;-81
2023/09/07 06:23:27;;;;;;;12.63;11.73;;;14.80;99.90;;;;;;4992786;28;20227;-81
2023/09/07 06:25:54;;;;;;;12.37;11.47;;;14.90;99.90;;;;;;4994550;28;20240;-81
2023/09/07 06:28:21;;;;;;;12.57;11.67;;;15.00;99.90;;;;;;4994475;28;20670;-81
2023/09/07 06:30:48;;;;;;;12.40;11.40;;;15.00;99.90;;;;;;4995351;28;20248;-81
2023/09/07 06:33:18;;;;;;;12.17;11.27;;;15.00;99.90;;;;;;4994787;28;20314;-81
2023/09/07 06:35:45;;;;;;;13.13;12.13;;;15.10;99.90;;;;;;4987596;28;20204;-81
2023/09/07 06:38:12;;;;;;;12.40;11.40;;;15.10;99.90;;;;;;4995120;28;20620;-81
2023/09/07 06:40:39;;;;;;;12.23;11.33;;;15.20;99.90;;;;;;4994945;28;20215;-81
2023/09/07 06:43:06;;;;;;;12.17;11.30;;;15.30;99.90;;;;;;4995091;28;20613;-81
2023/09/07 06:45:35;;;;;;;11.87;10.90;;;15.30;99.90;;;;;;4994194;28;20215;-80
2023/09/07 06:48:02;;;;;;;9.07;8.30;;;15.40;99.90;;;;;;4989751;28;20254;-81
2023/09/07 06:50:31;;;;;;;6.33;5.73;;;15.50;99.90;;;;;;4984022;28;20211;-81
2023/09/07 06:52:57;;;;;;;6.83;5.87;;;15.60;99.90;;;;;;4977620;28;20193;-82
2023/09/07 06:55:24;;;;;;;6.07;5.57;;;15.70;99.90;;;;;;4994711;28;20198;-80
2023/09/07 06:57:51;;;;;;;5.90;5.30;;;15.80;99.90;;;;;;4982679;28;20221;-81
2023/09/07 07:00:18;;;;;;;6.70;5.63;;;15.90;99.90;;;;;;4984838;28;20263;-80
2023/09/07 07:02:45;;;;;;;5.90;5.37;;;16.00;99.90;;;;;;4987559;28;20204;-80
2023/09/07 07:05:12;;;;;;;6.37;5.53;;;16.10;99.90;;;;;;4984685;28;20213;-80
2023/09/07 07:07:41;;;;;;;6.40;5.47;;;16.20;99.90;;;;;;4991672;28;20204;-80
2023/09/07 07:10:09;;;;;;;6.03;5.43;;;16.40;99.90;;;;;;4989437;28;20198;-80
2023/09/07 07:12:38;;;;;;;9.87;7.33;;;16.50;99.90;;;;;;5027183;28;20205;-80
2023/09/07 07:15:07;;;;;;;10.53;7.10;;;16.60;99.90;;;;;;4990397;28;20243;-80
2023/09/07 07:17:34;;;;;;;8.10;7.27;;;16.90;99.90;;;;;;4992782;28;20221;-80
2023/09/07 07:20:01;;;;;;;7.97;7.03;;;17.20;99.90;;;;;;4988981;28;20206;-80
2023/09/07 07:22:27;;;;;;;11.37;8.07;;;17.70;99.90;;;;;;4988456;28;20229;-80
2023/09/07 07:24:57;;;;;;;9.50;7.60;;;18.20;99.90;;;;;;4990597;28;20235;-81
2023/09/07 07:27:23;;;;;;;7.03;6.33;;;18.80;99.90;;;;;;5000003;28;20199;-80
2023/09/07 07:29:52;;;;;;;7.57;6.83;;;19.30;99.90;;;;;;5011976;28;20208;-81
2023/09/07 07:32:19;;;;;;;7.80;6.77;;;19.90;99.90;;;;;;4995107;28;20251;-81
2023/09/07 07:34:47;;;;;;;7.93;6.80;;;20.40;99.90;;;;;;4984914;28;20217;-81
2023/09/07 07:37:14;;;;;;;10.30;9.30;;;21.00;99.90;;;;;;4985821;28;20232;-81
2023/09/07 07:39:41;;;;;;;9.00;8.20;;;21.30;99.90;;;;;;4987406;28;20546;-81
2023/09/07 07:42:10;;;;;;;11.40;10.40;;;21.70;99.90;;;;;;4991112;28;20190;-81
2023/09/07 07:44:36;;;;;;;11.47;10.20;;;22.00;99.90;;;;;;4987423;28;20774;-78
2023/09/07 07:47:04;;;;;;;11.03;9.27;;;22.40;99.90;;;;;;4996408;28;20574;-78
2023/09/07 07:49:31;;;;;;;12.00;11.03;;;22.80;99.90;;;;;;4995100;28;20203;-78
2023/09/07 07:51:59;;;;;;;11.53;10.73;;;23.10;99.90;;;;;;4982650;28;20572;-78
2023/09/07 07:54:28;;;;;;;10.80;10.03;;;23.30;99.90;;;;;;4987532;28;20234;-78
2023/09/07 07:56:55;;;;;;;8.77;7.87;;;23.20;99.90;;;;;;4993072;28;20272;-78
2023/09/07 07:59:24;;;;;;;9.17;8.37;;;23.50;99.90;;;;;;4996820;28;20263;-78
2023/09/07 08:01:51;;;;;;;6.78;5.72;;;23.80;99.90;;;;;;4988745;28;20820;-81
2023/09/07 08:04:20;;;;;;;5.50;5.00;;;24.10;99.90;;;;;;4990949;28;20266;-81
2023/09/07 08:06:47;;;;;;;8.17;7.37;;;24.20;99.90;;;;;;5019830;28;20202;-78
2023/09/07 08:09:16;;;;;;;8.60;7.80;;;24.20;99.90;;;;;;4989715;28;20630;-79
2023/09/07 08:11:44;;;;;;;6.93;6.27;;;24.40;99.90;;;;;;4986189;28;20517;-78
2023/09/07 08:14:11;;;;;;;7.63;6.93;;;24.60;99.90;;;;;;4991701;28;20225;-78
2023/09/07 08:16:40;;;;;;;5.57;5.07;;;24.90;99.90;;;;;;4987846;28;20217;-78
2023/09/07 08:19:08;;;;;;;6.60;5.10;;;25.10;99.90;;;;;;4990278;28;20212;-78
2023/09/07 08:21:35;;;;;;;5.90;4.87;;;24.90;99.90;;;;;;4992071;28;20680;-78
2023/09/07 08:24:02;;;;;;;7.33;6.63;;;25.10;99.90;;;;;;4983356;28;20224;-78
2023/09/07 08:26:31;;;;;;;7.23;6.37;;;25.10;99.90;;;;;;4990949;28;20265;-78
2023/09/07 08:28:58;;;;;;;6.93;6.33;;;25.10;99.90;;;;;;4982116;28;20285;-79
2023/09/07 08:31:25;;;;;;;8.97;7.23;;;25.30;99.90;;;;;;4990709;28;20194;-79
2023/09/07 08:33:54;;;;;;;9.50;7.67;;;25.50;99.90;;;;;;4988082;28;20220;-78
2023/09/07 08:36:22;;;;;;;7.80;7.20;;;25.80;99.90;;;;;;4990046;28;20296;-78
2023/09/07 08:38:49;;;;;;;8.50;6.60;;;25.90;99.90;;;;;;4987205;28;20233;-78
2023/09/07 08:41:15;;;;;;;6.70;6.07;;;26.00;99.90;;;;;;4991009;28;20197;-79
2023/09/07 08:43:46;;;;;;;9.93;9.03;;;26.10;99.90;;;;;;4986505;28;20285;-78
2023/09/07 08:46:15;;;;;;;7.10;5.93;;;26.20;99.90;;;;;;4996907;28;20195;-79
2023/09/07 08:48:43;;;;;;;9.37;6.07;;;26.00;99.90;;;;;;4988689;28;20684;-78
2023/09/07 08:51:14;;;;;;;6.77;5.70;;;25.80;99.90;;;;;;4990056;28;20753;-79
2023/09/07 08:53:41;;;;;;;5.53;5.00;;;26.00;99.90;;;;;;4990928;28;20225;-78
2023/09/07 08:56:09;;;;;;;7.77;5.50;;;26.20;99.90;;;;;;4994724;28;20197;-79
2023/09/07 08:58:36;;;;;;;6.87;5.63;;;26.10;99.90;;;;;;4985201;28;20228;-78
2023/09/07 09:01:03;;;;;;;5.30;4.37;;;26.00;99.90;;;;;;4989761;28;20201;-78
2023/09/07 09:03:30;;;;;;;5.63;5.03;;;26.10;99.90;;;;;;5018749;28;20221;-79
2023/09/07 09:05:58;;;;;;;5.90;5.17;;;26.20;99.90;;;;;;4988086;28;20206;-79
2023/09/07 09:08:26;;;;;;;5.60;5.10;;;26.10;99.90;;;;;;4982701;28;20197;-78
2023/09/07 09:11:02;;;;;;;8.47;5.90;;;25.80;99.90;;;;;;4985407;28;20206;-78
2023/09/07 09:13:31;;;;;;;5.80;5.03;;;25.70;99.90;;;;;;4982608;28;20236;-78
2023/09/07 09:16:01;;;;;;;7.20;5.27;;;25.60;99.90;;;;;;4988745;28;20304;-78
2023/09/07 09:18:28;;;;;;;7.20;5.50;;;25.70;99.90;;;;;;4989739;28;20475;-78
2023/09/07 09:20:55;;;;;;;6.47;4.83;;;26.00;99.90;;;;;;4992706;28;20213;-79
2023/09/07 09:23:22;;;;;;;5.63;5.03;;;26.30;99.90;;;;;;4990136;28;20217;-78
2023/09/07 09:25:51;;;;;;;6.17;5.03;;;26.20;99.90;;;;;;4987630;28;20260;-79
2023/09/07 09:28:18;;;;;;;6.57;5.83;;;26.30;99.90;;;;;;4983476;28;20199;-78
2023/09/07 09:30:44;;;;;;;6.60;6.00;;;26.40;99.90;;;;;;4985449;28;20202;-78
2023/09/07 09:33:12;;;;;;;7.83;7.13;;;26.20;99.90;;;;;;4989098;28;20707;-79
2023/09/07 09:35:39;;;;;;;8.93;8.23;;;26.50;99.90;;;;;;4983911;28;20209;-78
2023/09/07 09:38:05;;;;;;;7.20;6.60;;;26.70;99.90;;;;;;4975905;28;20712;-78
2023/09/07 09:40:34;;;;;;;9.97;9.13;;;26.90;99.90;;;;;;4989452;28;20668;-78
2023/09/07 09:43:03;;;;;;;8.63;7.80;;;26.90;99.90;;;;;;5001912;28;20201;-79
2023/09/07 09:45:31;;;;;;;8.07;7.43;;;26.80;99.90;;;;;;4988702;28;20267;-79
2023/09/07 09:48:00;;;;;;;7.87;7.17;;;26.60;99.90;;;;;;4987208;28;20194;-79
2023/09/07 09:50:27;;;;;;;7.50;6.83;;;26.70;99.90;;;;;;4986764;28;20201;-79
2023/09/07 09:52:54;;;;;;;7.90;7.30;;;26.80;99.90;;;;;;4994039;28;20229;-78
2023/09/07 09:55:22;;;;;;;7.97;7.27;;;27.00;99.90;;;;;;4988612;28;20198;-79
2023/09/07 09:57:49;;;;;;;8.23;7.40;;;27.20;99.90;;;;;;4986791;28;20217;-78
2023/09/07 10:00:25;;;;;;;8.43;7.67;;;27.30;99.90;;;;;;4989031;28;20233;-79
2023/09/07 10:02:59;;;;;;;8.03;6.47;;;27.20;99.90;;;;;;4985901;28;20686;-78
2023/09/07 10:05:26;;;;;;;7.00;6.40;;;27.20;99.90;;;;;;4990305;28;20355;-78
2023/09/07 10:07:54;;;;;;;7.07;6.47;;;27.20;99.90;;;;;;4985196;28;20734;-79
2023/09/07 10:10:21;;;;;;;7.17;6.57;;;27.20;99.90;;;;;;4991791;28;20549;-78
2023/09/07 10:12:54;;;;;;;8.10;7.37;;;27.10;99.90;;;;;;4987024;28;20300;-79
2023/09/07 10:15:23;;;;;;;8.43;6.83;;;26.90;99.90;;;;;;4987105;28;20193;-78
2023/09/07 10:17:52;;;;;;;7.30;6.50;;;26.50;99.90;;;;;;4986988;28;20225;-78
2023/09/07 10:20:23;;;;;;;8.60;7.90;;;26.50;99.90;;;;;;4988776;28;20225;-78
2023/09/07 10:22:50;;;;;;;7.83;7.13;;;26.30;99.90;;;;;;4984195;28;20229;-78
2023/09/07 10:25:24;;;;;;;7.90;7.30;;;26.10;99.90;;;;;;4988110;28;20248;-78
2023/09/07 10:27:50;;;;;;;7.33;6.57;;;26.00;99.90;;;;;;4989949;28;20193;-78
2023/09/07 10:30:23;;;;;;;7.57;6.97;;;26.10;99.90;;;;;;4993084;28;20214;-78
2023/09/07 10:32:51;;;;;;;8.17;7.37;;;26.10;99.90;;;;;;4985560;28;20679;-78
2023/09/07 10:35:21;;;;;;;7.80;7.00;;;26.00;99.90;;;;;;4986159;28;20201;-78
2023/09/07 10:37:49;;;;;;;8.40;7.60;;;25.90;99.90;;;;;;4985750;28;20225;-78
2023/09/07 10:40:21;;;;;;;8.53;7.83;;;25.90;99.90;;;;;;4989309;28;20194;-78
2023/09/07 10:42:47;;;;;;;9.07;8.27;;;26.00;99.90;;;;;;4984199;28;20213;-78
2023/09/07 10:45:16;;;;;;;8.90;8.20;;;26.10;99.90;;;;;;4993932;28;20209;-78
2023/09/07 10:47:45;;;;;;;9.10;8.40;;;26.00;99.90;;;;;;4988738;28;20698;-78
2023/09/07 10:50:14;;;;;;;8.83;8.07;;;25.90;99.90;;;;;;4989551;28;20747;-78
2023/09/07 10:52:41;;;;;;;8.83;7.97;;;25.80;99.90;;;;;;4984576;28;20578;-78
2023/09/07 10:55:10;;;;;;;7.87;7.17;;;25.70;99.90;;;;;;4983641;28;20231;-78
2023/09/07 10:57:44;;;;;;;7.97;7.10;;;25.80;99.90;;;;;;4988698;28;20202;-78
2023/09/07 11:00:13;;;;;;;7.87;7.10;;;25.90;99.90;;;;;;4984416;28;20749;-78
2023/09/07 11:02:40;;;;;;;7.30;6.67;;;25.80;99.90;;;;;;4985836;28;20290;-77
2023/09/07 11:05:08;;;;;;;7.00;6.30;;;25.50;99.90;;;;;;4987765;28;20213;-78
2023/09/07 11:07:37;;;;;;;6.57;5.93;;;25.40;99.90;;;;;;4985631;28;20219;-78
2023/09/07 11:10:06;;;;;;;6.47;5.87;;;25.50;99.90;;;;;;4981715;28;20280;-78
2023/09/07 11:12:37;;;;;;;8.23;6.40;;;25.60;99.90;;;;;;4982077;28;20210;-77
2023/09/07 11:15:05;;;;;;;8.53;6.70;;;25.60;99.90;;;;;;4991911;28;20221;-78
2023/09/07 11:17:32;;;;;;;6.83;6.10;;;25.50;99.90;;;;;;4989577;28;20241;-78
2023/09/07 11:19:58;;;;;;;9.33;6.60;;;25.60;99.90;;;;;;4990263;28;20197;-77
2023/09/07 11:22:25;;;;;;;6.40;5.80;;;25.70;99.90;;;;;;4988204;28;20264;-77
2023/09/07 11:24:53;;;;;;;7.30;6.50;;;25.60;99.90;;;;;;4984664;28;20247;-77
2023/09/07 11:27:21;;;;;;;6.87;5.83;;;25.60;99.90;;;;;;4987043;28;20244;-78
2023/09/07 11:29:53;;;;;;;6.43;5.83;;;25.60;99.90;;;;;;4986754;28;20228;-77
2023/09/07 11:32:22;;;;;;;7.30;6.60;;;25.70;99.90;;;;;;4981234;28;20194;-78
2023/09/07 11:34:50;;;;;;;8.50;6.30;;;25.70;99.90;;;;;;4992152;28;20723;-78
2023/09/07 11:37:17;;;;;;;8.40;6.60;;;25.70;99.90;;;;;;4984685;28;20667;-76
2023/09/07 11:39:44;;;;;;;7.30;6.07;;;25.80;99.90;;;;;;4995375;28;20236;-80
2023/09/07 11:42:12;;;;;;;6.90;6.20;;;25.90;99.90;;;;;;4991999;28;20193;-81
2023/09/07 11:44:39;;;;;;;6.90;6.30;;;25.90;99.90;;;;;;4991202;28;20225;-81
2023/09/07 11:47:06;;;;;;;8.20;6.90;;;25.90;99.90;;;;;;4990629;28;20263;-81
2023/09/07 11:49:33;;;;;;;8.80;6.43;;;26.00;99.90;;;;;;5025217;28;20209;-77
2023/09/07 11:52:00;;;;;;;8.53;6.53;;;25.90;99.90;;;;;;4993805;28;20251;-80
2023/09/07 11:54:27;;;;;;;6.60;6.00;;;25.90;99.90;;;;;;4988565;28;20217;-80
2023/09/07 11:56:54;;;;;;;7.23;6.10;;;25.90;99.90;;;;;;4983924;28;20190;-78
2023/09/07 11:59:22;;;;;;;8.20;6.23;;;26.00;99.90;;;;;;4988448;28;20300;-78
2023/09/07 12:01:49;;;;;;;8.13;6.10;;;25.90;99.90;;;;;;4986444;28;20201;-79
2023/09/07 12:04:17;;;;;;;7.37;6.67;;;25.90;99.90;;;;;;4989128;28;20711;-82
2023/09/07 12:06:44;;;;;;;11.37;6.93;;;26.00;99.90;;;;;;4995362;28;20205;-79
2023/09/07 12:09:10;;;;;;;10.77;6.73;;;26.00;99.90;;;;;;4989343;28;20185;-79
2023/09/07 12:11:37;;;;;;;7.53;6.83;;;26.00;99.90;;;;;;4989347;28;20205;-79
2023/09/07 12:14:05;;;;;;;7.03;6.37;;;25.90;99.90;;;;;;4994728;28;20213;-80
2023/09/07 12:16:33;;;;;;;7.23;6.03;;;26.00;99.90;;;;;;4992240;28;20255;-79
2023/09/07 12:19:00;;;;;;;8.20;6.50;;;26.00;99.90;;;;;;4991778;28;20221;-79
2023/09/07 12:21:26;;;;;;;7.00;6.30;;;26.00;99.90;;;;;;5000898;28;20201;-79
2023/09/07 12:23:53;;;;;;;7.33;6.37;;;26.00;99.90;;;;;;4995941;28;20217;-79
2023/09/07 12:26:20;;;;;;;6.70;6.03;;;26.00;99.90;;;;;;4992265;28;20210;-79
2023/09/07 12:28:47;;;;;;;6.53;5.87;;;26.00;99.90;;;;;;4991139;28;20198;-79
2023/09/07 12:31:14;;;;;;;7.73;5.80;;;26.10;99.90;;;;;;4996666;28;20198;-79
2023/09/07 12:33:43;;;;;;;6.47;5.73;;;26.10;99.90;;;;;;4986819;28;20284;-78
2023/09/07 12:36:11;;;;;;;7.60;6.17;;;26.10;99.90;;;;;;4997753;28;20596;-79
2023/09/07 12:38:38;;;;;;;7.07;6.40;;;26.20;99.90;;;;;;4989971;28;20221;-79